SCGZ

Guardiamarina Zañartu Airport

Airport
ICAO code
SCGZ
IATA Code
WPU
Summary
ICAO Region
CARSAM
ICAO Territory
Location

Puerto Williams, Magallanes y de la Antartica Chilena

Serving
Puerto Williams
Elevation
88 ft
Coordinates
54° 55' 52" S , 67° 37' 35" W
KCC
Cfc
Metar
Observation
SCGZ 081500Z 28011KT 9999 FEW050 SCT076 05/M01 Q1017
Station
Guardiamarina Zañartu Airport
Date/Time
2022-08-08 15:00:00
Wind direction
280°
Wind speed
11 kts
Lowest cloud amount
few clouds
Temperature
5°C
Dew point
-1°C
Humidity
65%
QNH
1017 hPa
Weather condition
n/a

Airport serving city of Puerto Williams in southern Chile.

Climatology

Sub-polar oceanic climate (Köppen climate classification Cfc)

Runways

Designator Length Width Surface Rops
8/26 1440 29 ASP No/No

Airport map

Aerial View

SKYbrary Partners:

Safety knowledge contributed by: